createdAt,value
2022-12-20T00:01:29.121Z,14.53
2022-12-20T00:03:58.340Z,20.30
2022-12-20T00:06:25.746Z,16.30
2022-12-20T00:08:56.546Z,12.97
2022-12-20T00:11:25.146Z,11.13
2022-12-20T00:13:54.438Z,13.73
2022-12-20T00:16:27.699Z,16.10
2022-12-20T00:19:00.988Z,13.27
2022-12-20T00:21:30.431Z,13.47
2022-12-20T00:23:57.952Z,12.07
2022-12-20T00:26:27.945Z,13.97
2022-12-20T00:28:55.572Z,11.23
2022-12-20T00:31:25.262Z,16.23
2022-12-20T00:33:54.543Z,12.93
2022-12-20T00:36:22.855Z,13.40
2022-12-20T00:38:52.679Z,15.27
2022-12-20T00:41:22.733Z,20.60
2022-12-20T00:43:51.274Z,17.87
2022-12-20T00:46:19.615Z,17.43
2022-12-20T00:48:46.978Z,17.80
2022-12-20T00:51:16.978Z,17.47
2022-12-20T00:53:43.813Z,16.53
2022-12-20T00:56:13.567Z,13.87
2022-12-20T00:58:42.227Z,14.33
2022-12-20T01:01:25.994Z,14.13
2022-12-20T01:03:54.723Z,13.77
2022-12-20T01:06:23.180Z,12.67
2022-12-20T01:08:49.980Z,12.53
2022-12-20T01:11:20.345Z,11.67
2022-12-20T01:13:52.185Z,12.43
2022-12-20T01:16:30.132Z,12.57
2022-12-20T01:18:58.401Z,13.33
2022-12-20T01:21:27.740Z,11.67
2022-12-20T01:23:57.578Z,10.73
2022-12-20T01:26:26.578Z,17.93
2022-12-20T01:28:57.112Z,14.50
2022-12-20T01:31:24.653Z,12.77
2022-12-20T01:33:52.722Z,11.17
2022-12-20T01:36:26.679Z,13.20
2022-12-20T01:38:58.321Z,16.10
2022-12-20T01:41:28.138Z,13.07
2022-12-20T01:44:25.728Z,12.70
2022-12-20T01:46:55.383Z,15.47
2022-12-20T01:49:28.079Z,14.63
2022-12-20T01:52:06.212Z,14.23
2022-12-20T01:54:35.994Z,12.47
2022-12-20T01:57:08.511Z,12.47
2022-12-20T01:59:38.875Z,12.57
2022-12-20T02:02:09.868Z,12.67
2022-12-20T02:04:36.908Z,14.83
2022-12-20T02:07:07.831Z,11.97
2022-12-20T02:09:37.894Z,13.93
2022-12-20T02:12:19.907Z,14.97
2022-12-20T02:14:52.744Z,12.80
2022-12-20T02:17:46.521Z,12.20
2022-12-20T02:20:48.809Z,15.23
2022-12-20T02:23:35.760Z,12.00
2022-12-20T02:26:23.774Z,10.43
2022-12-20T02:29:26.042Z,11.60
2022-12-20T02:32:00.694Z,12.23
2022-12-20T02:34:30.200Z,15.60
2022-12-20T02:36:58.048Z,15.43
2022-12-20T02:39:32.550Z,12.63
2022-12-20T02:42:07.262Z,18.37
2022-12-20T02:44:57.456Z,20.87
2022-12-20T02:47:42.453Z,22.90
2022-12-20T02:50:11.340Z,18.10
2022-12-20T02:52:42.540Z,17.37
2022-12-20T02:55:43.124Z,13.60
2022-12-20T02:58:28.668Z,17.13
2022-12-20T03:00:59.683Z,11.87
2022-12-20T03:03:27.442Z,12.20
2022-12-20T03:05:56.479Z,13.70
2022-12-20T03:08:24.739Z,13.30
2022-12-20T03:10:52.754Z,10.93
2022-12-20T03:13:21.184Z,14.43
2022-12-20T03:15:54.407Z,14.80
2022-12-20T03:18:21.456Z,12.67
2022-12-20T03:20:49.876Z,12.13
2022-12-20T03:23:18.633Z,14.37
2022-12-20T03:25:45.896Z,11.63
2022-12-20T03:28:20.008Z,13.00
2022-12-20T03:30:47.447Z,11.07
2022-12-20T03:33:14.578Z,14.00
2022-12-20T03:35:42.987Z,11.57
2022-12-20T03:38:10.423Z,12.10
2022-12-20T03:40:38.075Z,8.83
2022-12-20T03:43:04.927Z,11.37
2022-12-20T03:45:31.785Z,10.47
2022-12-20T03:47:58.918Z,8.60
2022-12-20T03:50:36.699Z,9.17
2022-12-20T03:53:03.704Z,9.63
2022-12-20T03:55:31.772Z,7.47
2022-12-20T03:57:58.612Z,14.23
2022-12-20T04:00:30.329Z,8.70
2022-12-20T04:03:14.977Z,11.73
2022-12-20T04:05:42.078Z,18.13
2022-12-20T04:08:10.221Z,17.53
2022-12-20T04:10:57.258Z,19.13
2022-12-20T04:13:26.426Z,13.33
2022-12-20T04:15:59.837Z,17.90
2022-12-20T04:18:31.282Z,15.97
2022-12-20T04:21:04.365Z,15.20
2022-12-20T04:23:35.272Z,12.00
2022-12-20T04:26:04.431Z,12.73
2022-12-20T04:28:33.621Z,14.17
2022-12-20T04:31:01.251Z,11.10
2022-12-20T04:33:30.522Z,9.80
2022-12-20T04:35:57.969Z,8.47
2022-12-20T04:38:25.742Z,9.37
2022-12-20T04:40:54.995Z,8.63
2022-12-20T04:43:24.711Z,10.70
2022-12-20T04:45:58.165Z,12.27
2022-12-20T04:51:14.436Z,8.93
2022-12-20T04:53:49.393Z,12.60
2022-12-20T04:56:33.931Z,14.50
2022-12-20T04:59:06.791Z,13.87
2022-12-20T05:01:34.079Z,16.93
2022-12-20T05:04:02.213Z,14.83
2022-12-20T05:06:32.987Z,13.50
2022-12-20T05:08:59.863Z,18.07
2022-12-20T05:11:27.629Z,15.77
2022-12-20T05:13:54.938Z,14.77
2022-12-20T05:16:22.798Z,13.93
2022-12-20T05:18:49.937Z,13.50
2022-12-20T05:21:37.171Z,11.37
2022-12-20T05:24:25.247Z,14.87
2022-12-20T05:27:11.583Z,14.30
2022-12-20T05:29:38.649Z,13.83
2022-12-20T05:32:05.504Z,11.80
2022-12-20T05:34:35.968Z,10.93
2022-12-20T05:37:02.835Z,12.77
2022-12-20T05:39:33.815Z,12.30
2022-12-20T05:42:04.282Z,12.63
2022-12-20T05:44:31.254Z,9.07
2022-12-20T05:46:58.234Z,11.17
2022-12-20T05:49:28.965Z,13.63
2022-12-20T05:51:57.094Z,11.50
2022-12-20T05:54:27.059Z,10.93
2022-12-20T05:57:16.124Z,12.27
2022-12-20T05:59:44.659Z,11.30
2022-12-20T06:02:22.948Z,12.93
2022-12-20T06:04:55.585Z,14.10
2022-12-20T06:07:24.278Z,12.83
2022-12-20T06:09:57.077Z,14.30
2022-12-20T06:12:29.611Z,14.37
2022-12-20T06:14:57.265Z,10.33
2022-12-20T06:17:24.033Z,13.03
2022-12-20T06:19:54.840Z,12.60
2022-12-20T06:22:21.704Z,12.40
2022-12-20T06:24:53.697Z,14.50
2022-12-20T06:27:25.749Z,14.67
2022-12-20T06:30:01.131Z,15.83
2022-12-20T06:32:34.735Z,13.83
2022-12-20T06:35:03.236Z,10.70
2022-12-20T06:37:33.216Z,11.47
2022-12-20T06:40:00.323Z,13.57
2022-12-20T06:42:28.026Z,13.33
2022-12-20T06:44:56.069Z,10.53
2022-12-20T06:47:23.927Z,10.87
2022-12-20T06:49:51.058Z,12.07
2022-12-20T06:52:22.764Z,12.53
2022-12-20T06:54:51.940Z,10.00
2022-12-20T06:57:24.008Z,10.77
2022-12-20T06:59:52.131Z,13.27
2022-12-20T07:02:19.542Z,12.67
2022-12-20T07:04:46.511Z,12.53
2022-12-20T07:07:17.164Z,11.60
2022-12-20T07:09:44.469Z,13.27
2022-12-20T07:12:11.903Z,14.33
2022-12-20T07:14:38.771Z,13.40
2022-12-20T07:17:06.099Z,10.70
2022-12-20T07:19:33.693Z,11.17
2022-12-20T07:22:01.697Z,12.60
2022-12-20T07:24:29.450Z,10.27
2022-12-20T07:26:56.214Z,14.33
2022-12-20T07:29:23.219Z,13.83
2022-12-20T07:31:50.088Z,12.60
2022-12-20T07:34:17.392Z,11.77
2022-12-20T07:36:44.548Z,13.27
2022-12-20T07:39:11.288Z,9.60
2022-12-20T07:41:38.309Z,10.20
2022-12-20T07:44:06.286Z,11.80
2022-12-20T07:46:34.983Z,11.27
2022-12-20T07:49:01.974Z,11.90
2022-12-20T07:51:34.951Z,10.23
2022-12-20T07:54:46.023Z,11.73
2022-12-20T07:57:19.796Z,12.80
2022-12-20T07:59:55.240Z,10.23
2022-12-20T08:03:00.531Z,10.33
2022-12-20T08:05:28.792Z,13.53
2022-12-20T08:08:19.906Z,9.17
2022-12-20T08:10:47.191Z,8.03
2022-12-20T08:13:14.321Z,9.57
2022-12-20T08:15:44.558Z,12.87
2022-12-20T08:18:11.318Z,9.53
2022-12-20T08:20:38.097Z,12.63
2022-12-20T08:23:05.540Z,12.17
2022-12-20T08:25:41.166Z,19.77
2022-12-20T08:28:08.966Z,16.23
2022-12-20T08:30:35.856Z,16.30
2022-12-20T08:33:02.892Z,25.60
2022-12-20T08:35:29.936Z,14.07
2022-12-20T08:37:56.852Z,15.03
2022-12-20T08:40:23.646Z,13.13
2022-12-20T08:42:50.391Z,16.73
2022-12-20T08:45:19.877Z,15.17
2022-12-20T08:47:47.887Z,11.03
2022-12-20T08:50:15.482Z,12.90
2022-12-20T08:52:42.227Z,19.97
2022-12-20T08:55:12.743Z,14.77
2022-12-20T08:57:40.786Z,13.03
2022-12-20T09:00:08.449Z,12.97
2022-12-20T09:02:35.945Z,11.50
2022-12-20T09:05:04.939Z,12.93
2022-12-20T09:07:31.782Z,12.27
2022-12-20T09:09:58.917Z,12.63
2022-12-20T09:12:25.908Z,15.67
2022-12-20T09:14:52.729Z,14.10
2022-12-20T09:17:19.483Z,11.37
2022-12-20T09:19:46.872Z,10.97
2022-12-20T09:22:15.520Z,10.10
2022-12-20T09:24:42.363Z,11.90
2022-12-20T09:27:09.210Z,11.90
2022-12-20T09:29:37.419Z,12.30
2022-12-20T09:32:06.246Z,12.10
2022-12-20T09:34:33.756Z,11.40
2022-12-20T09:37:01.095Z,12.27
2022-12-20T09:39:28.038Z,10.10
2022-12-20T09:41:55.081Z,11.33
2022-12-20T09:44:31.602Z,11.60
2022-12-20T09:47:11.217Z,11.63
2022-12-20T09:49:44.368Z,11.53
2022-12-20T09:52:18.214Z,12.40
2022-12-20T09:54:58.155Z,13.67
2022-12-20T09:57:46.160Z,12.27
2022-12-20T10:00:18.722Z,12.27
2022-12-20T10:03:09.501Z,10.87
2022-12-20T10:05:42.656Z,12.00
2022-12-20T10:08:37.461Z,10.57
2022-12-20T10:11:31.655Z,11.47
2022-12-20T10:14:14.338Z,11.57
2022-12-20T10:16:57.001Z,10.20
2022-12-20T10:19:44.130Z,8.17
2022-12-20T10:22:20.068Z,8.83
2022-12-20T10:25:20.964Z,11.50
2022-12-20T10:27:50.710Z,9.03
2022-12-20T10:30:24.537Z,7.90
2022-12-20T10:32:54.811Z,6.23
2022-12-20T10:35:41.446Z,6.90
2022-12-20T10:38:13.025Z,6.00
2022-12-20T10:43:43.127Z,6.23
2022-12-20T10:46:12.915Z,6.40
2022-12-20T10:48:41.988Z,5.57
2022-12-20T10:51:15.091Z,6.20
2022-12-20T10:54:02.702Z,6.73
2022-12-20T10:56:32.593Z,8.33
2022-12-20T10:59:02.170Z,7.53
2022-12-20T11:01:34.204Z,6.53
2022-12-20T11:04:04.713Z,5.10
2022-12-20T11:06:37.752Z,5.37
2022-12-20T11:09:27.050Z,5.87
2022-12-20T11:12:06.898Z,4.20
2022-12-20T11:14:39.316Z,4.47
2022-12-20T11:17:25.332Z,5.33
2022-12-20T11:20:15.208Z,5.40
2022-12-20T11:23:14.303Z,6.47
2022-12-20T11:25:50.431Z,3.77
2022-12-20T11:28:34.377Z,5.13
2022-12-20T11:31:07.360Z,6.93
2022-12-20T11:33:38.276Z,7.87
2022-12-20T11:36:09.379Z,5.30
2022-12-20T11:38:52.828Z,5.27
2022-12-20T11:41:45.396Z,8.87
2022-12-20T11:44:25.912Z,6.23
2022-12-20T11:47:34.752Z,5.77
2022-12-20T11:50:23.199Z,13.47
2022-12-20T11:52:58.405Z,9.73
2022-12-20T11:55:38.171Z,8.63
2022-12-20T11:58:26.899Z,8.33
2022-12-20T12:00:56.138Z,7.07
2022-12-20T12:03:48.036Z,10.60
2022-12-20T12:06:21.454Z,9.23
2022-12-20T12:09:06.545Z,7.37
2022-12-20T12:12:06.051Z,8.50
2022-12-20T12:14:52.726Z,8.07
2022-12-20T12:17:57.126Z,9.47
2022-12-20T12:20:33.945Z,9.37
2022-12-20T12:23:24.323Z,10.10
2022-12-20T12:25:51.727Z,10.70
2022-12-20T12:28:20.889Z,10.03
2022-12-20T12:30:56.820Z,11.70
2022-12-20T12:33:38.992Z,8.33
2022-12-20T12:36:08.787Z,10.03
2022-12-20T12:39:01.947Z,8.50
2022-12-20T12:41:33.297Z,8.60
2022-12-20T12:44:29.232Z,8.87
2022-12-20T12:47:01.003Z,10.50
2022-12-20T12:49:30.185Z,7.40
2022-12-20T12:52:00.616Z,9.90
2022-12-20T12:54:40.248Z,12.43
2022-12-20T12:57:18.049Z,9.83
2022-12-20T12:59:48.130Z,8.90
2022-12-20T13:02:16.731Z,8.57
2022-12-20T13:05:15.924Z,9.17
2022-12-20T13:07:44.925Z,10.33
2022-12-20T13:10:15.059Z,9.27
2022-12-20T13:12:42.011Z,11.33
2022-12-20T13:15:21.198Z,9.70
2022-12-20T13:17:58.179Z,9.83
2022-12-20T13:20:35.868Z,8.57
2022-12-20T13:23:07.382Z,10.47
2022-12-20T13:25:38.709Z,10.10
2022-12-20T13:28:23.738Z,8.57
2022-12-20T13:31:02.847Z,9.27
2022-12-20T13:33:41.809Z,10.80
2022-12-20T13:36:12.515Z,11.33
2022-12-20T13:38:50.890Z,9.97
2022-12-20T13:41:37.650Z,13.77
2022-12-20T13:44:16.742Z,12.30
2022-12-20T13:46:50.614Z,11.63
2022-12-20T13:49:40.642Z,9.90
2022-12-20T13:52:42.260Z,10.27
2022-12-20T13:55:35.666Z,9.33
2022-12-20T13:58:22.670Z,11.00
2022-12-20T14:00:50.585Z,10.90
2022-12-20T14:03:28.695Z,11.27
2022-12-20T14:06:02.016Z,13.43
2022-12-20T14:08:35.647Z,11.30
2022-12-20T14:11:31.718Z,9.03
2022-12-20T14:14:03.653Z,8.67
2022-12-20T14:16:32.657Z,10.33
2022-12-20T14:19:03.379Z,8.97
2022-12-20T14:21:31.297Z,8.93
2022-12-20T14:24:00.777Z,12.27
2022-12-20T14:26:30.156Z,9.97
2022-12-20T14:28:59.035Z,11.87
2022-12-20T14:31:32.232Z,11.87
2022-12-20T14:34:11.870Z,13.83
2022-12-20T14:36:44.958Z,13.90
2022-12-20T14:39:36.594Z,13.13
2022-12-20T14:42:06.873Z,16.40
2022-12-20T14:44:35.307Z,10.47
2022-12-20T14:47:18.774Z,13.13
2022-12-20T14:49:58.785Z,10.23
2022-12-20T14:52:39.044Z,9.53
2022-12-20T14:55:12.833Z,11.10
2022-12-20T14:57:46.965Z,13.30
2022-12-20T15:00:17.653Z,11.67
2022-12-20T15:02:59.208Z,8.63
2022-12-20T15:05:36.420Z,11.80
2022-12-20T15:08:21.754Z,9.50
2022-12-20T15:11:08.903Z,10.90
2022-12-20T15:13:37.568Z,13.33
2022-12-20T15:16:14.273Z,10.77
2022-12-20T15:18:41.655Z,12.47
2022-12-20T15:21:41.036Z,10.77
2022-12-20T15:24:21.960Z,10.87
2022-12-20T15:26:50.037Z,9.30
2022-12-20T15:29:25.603Z,9.07
2022-12-20T15:32:00.834Z,10.40
2022-12-20T15:34:29.453Z,10.03
2022-12-20T15:36:59.979Z,10.03
2022-12-20T15:39:27.495Z,10.87
2022-12-20T15:41:56.665Z,9.77
2022-12-20T15:44:26.242Z,13.03
2022-12-20T15:46:53.684Z,11.60
2022-12-20T15:49:24.055Z,13.53
2022-12-20T15:51:52.849Z,12.73
2022-12-20T15:54:27.336Z,13.93
2022-12-20T15:56:55.594Z,16.27
2022-12-20T16:02:25.480Z,12.17
2022-12-20T16:04:55.201Z,10.30
2022-12-20T16:07:22.482Z,10.37
2022-12-20T16:09:54.145Z,10.77
2022-12-20T16:12:20.939Z,9.67
2022-12-20T16:14:48.195Z,12.20
2022-12-20T16:17:16.726Z,10.87
2022-12-20T16:19:44.445Z,9.43
2022-12-20T16:22:19.880Z,12.40
2022-12-20T16:24:47.052Z,9.50
2022-12-20T16:27:14.038Z,11.00
2022-12-20T16:29:41.603Z,7.87
2022-12-20T16:32:16.588Z,8.90
2022-12-20T16:34:46.282Z,9.90
2022-12-20T16:37:14.005Z,11.67
2022-12-20T16:39:42.090Z,14.03
2022-12-20T16:42:17.154Z,10.87
2022-12-20T16:44:46.232Z,10.87
2022-12-20T16:47:14.554Z,17.23
2022-12-20T16:49:51.260Z,12.00
2022-12-20T16:52:20.745Z,11.77
2022-12-20T16:54:48.238Z,12.57
2022-12-20T16:57:15.513Z,7.40
2022-12-20T16:59:42.434Z,10.50
2022-12-20T17:02:41.749Z,12.03
2022-12-20T17:05:27.528Z,10.93
2022-12-20T17:07:54.675Z,9.83
2022-12-20T17:10:22.960Z,12.13
2022-12-20T17:12:50.764Z,11.47
2022-12-20T17:15:27.156Z,11.37
2022-12-20T17:17:55.051Z,10.47
2022-12-20T17:20:24.937Z,9.73
2022-12-20T17:25:40.232Z,13.53
2022-12-20T17:28:08.182Z,12.90
2022-12-20T17:30:36.169Z,12.73
2022-12-20T17:33:03.514Z,11.73
2022-12-20T17:35:32.701Z,11.27
2022-12-20T17:38:01.907Z,10.83
2022-12-20T17:40:29.052Z,9.97
2022-12-20T17:42:56.091Z,12.77
2022-12-20T17:45:33.181Z,14.10
2022-12-20T17:48:00.461Z,14.50
2022-12-20T17:50:28.445Z,15.77
2022-12-20T17:52:55.574Z,13.03
2022-12-20T17:55:28.026Z,13.47
2022-12-20T17:57:55.784Z,14.83
2022-12-20T18:00:39.023Z,14.77
2022-12-20T18:03:07.274Z,17.40
2022-12-20T18:05:34.313Z,14.77
2022-12-20T18:08:01.213Z,15.87
2022-12-20T18:10:29.098Z,15.43
2022-12-20T18:12:56.465Z,15.20
2022-12-20T18:15:24.417Z,11.17
2022-12-20T18:17:51.565Z,11.57
2022-12-20T18:20:19.542Z,33.20
2022-12-20T18:22:48.571Z,13.83
2022-12-20T18:25:18.479Z,13.13
2022-12-20T18:27:45.422Z,13.60
2022-12-20T18:30:15.091Z,12.07
2022-12-20T18:32:42.247Z,12.50
2022-12-20T18:35:10.442Z,12.77
2022-12-20T18:37:37.514Z,12.20
2022-12-20T18:40:04.950Z,15.43
2022-12-20T18:42:31.964Z,11.60
2022-12-20T18:44:58.949Z,12.70
2022-12-20T18:47:26.134Z,13.43
2022-12-20T18:49:53.819Z,12.47
2022-12-20T18:52:21.653Z,8.90
2022-12-20T18:54:49.407Z,10.90
2022-12-20T18:57:16.554Z,11.97
2022-12-20T18:59:44.615Z,12.77
2022-12-20T19:02:13.034Z,17.13
2022-12-20T19:04:43.492Z,16.83
2022-12-20T19:07:11.239Z,12.20
2022-12-20T19:09:38.201Z,11.70
2022-12-20T19:12:05.582Z,12.07
2022-12-20T19:14:32.531Z,13.20
2022-12-20T19:16:59.645Z,8.97
2022-12-20T19:19:26.722Z,10.83
2022-12-20T19:21:53.626Z,11.87
2022-12-20T19:24:21.447Z,11.13
2022-12-20T19:26:48.851Z,10.97
2022-12-20T19:29:17.611Z,11.10
2022-12-20T19:31:44.887Z,12.30
2022-12-20T19:34:12.865Z,9.83
2022-12-20T19:36:46.616Z,10.20
2022-12-20T19:39:23.164Z,9.10
2022-12-20T19:42:21.737Z,7.47
2022-12-20T19:44:38.012Z,9.47
2022-12-20T19:47:05.118Z,7.13
2022-12-20T19:49:32.113Z,6.23
2022-12-20T19:51:59.147Z,8.07
2022-12-20T19:54:26.662Z,7.03
2022-12-20T19:56:53.594Z,8.47
2022-12-20T19:59:21.752Z,7.37
2022-12-20T20:01:49.338Z,7.53
2022-12-20T20:04:16.925Z,7.80
2022-12-20T20:06:43.889Z,8.57
2022-12-20T20:09:11.593Z,9.33
2022-12-20T20:11:38.549Z,7.80
2022-12-20T20:14:09.382Z,7.47
2022-12-20T20:16:37.613Z,7.27
2022-12-20T20:19:05.752Z,9.60
2022-12-20T20:21:35.108Z,12.40
2022-12-20T20:24:02.602Z,13.63
2022-12-20T20:26:31.726Z,14.20
2022-12-20T20:29:01.425Z,17.53
2022-12-20T20:31:28.481Z,11.50
2022-12-20T20:33:57.921Z,10.77
2022-12-20T20:36:24.940Z,9.17
2022-12-20T20:38:52.449Z,9.87
2022-12-20T20:41:20.299Z,9.80
2022-12-20T20:43:47.475Z,7.40
2022-12-20T20:46:17.482Z,9.27
2022-12-20T20:48:44.850Z,8.50
2022-12-20T20:51:12.940Z,6.90
2022-12-20T20:53:40.076Z,7.73
2022-12-20T20:56:08.497Z,6.13
2022-12-20T20:58:36.392Z,10.67
2022-12-20T21:01:08.525Z,6.27
2022-12-20T21:03:35.818Z,8.63
2022-12-20T21:06:38.688Z,8.97
2022-12-20T21:08:53.111Z,8.97
2022-12-20T21:11:20.976Z,14.70
2022-12-20T21:13:48.609Z,11.73
2022-12-20T21:16:20.977Z,13.83
2022-12-20T21:18:53.503Z,11.33
2022-12-20T21:21:21.838Z,8.90
2022-12-20T21:23:49.264Z,10.50
2022-12-20T21:26:18.235Z,9.57
2022-12-20T21:28:45.607Z,8.53
2022-12-20T21:31:18.022Z,8.97
2022-12-20T21:33:46.467Z,9.17
2022-12-20T21:36:16.996Z,10.03
2022-12-20T21:38:50.381Z,7.43
2022-12-20T21:41:19.091Z,7.13
2022-12-20T21:43:49.769Z,8.73
2022-12-20T21:46:18.107Z,8.83
2022-12-20T21:48:45.204Z,8.30
2022-12-20T21:51:15.340Z,7.97
2022-12-20T21:53:47.151Z,6.27
2022-12-20T21:56:15.922Z,8.27
2022-12-20T21:58:44.829Z,7.87
2022-12-20T22:01:14.449Z,4.53
2022-12-20T22:03:41.799Z,5.03
2022-12-20T22:06:11.705Z,5.90
2022-12-20T22:08:38.664Z,4.97
2022-12-20T22:11:13.860Z,4.03
2022-12-20T22:13:42.324Z,5.57
2022-12-20T22:16:17.161Z,4.30
2022-12-20T22:18:50.731Z,5.53
2022-12-20T22:21:19.507Z,6.20
2022-12-20T22:23:46.890Z,6.97
2022-12-20T22:26:17.526Z,4.40
2022-12-20T22:28:53.345Z,5.53
2022-12-20T22:31:21.073Z,4.00
2022-12-20T22:33:49.424Z,6.57
2022-12-20T22:36:17.281Z,4.23
2022-12-20T22:38:44.896Z,4.03
2022-12-20T22:41:41.818Z,5.43
2022-12-20T22:44:08.894Z,3.73
2022-12-20T22:46:35.838Z,5.77
2022-12-20T22:49:02.879Z,5.07
2022-12-20T22:51:33.515Z,8.50
2022-12-20T22:54:01.477Z,6.20
2022-12-20T22:56:28.486Z,7.87
2022-12-20T22:58:57.185Z,7.80
2022-12-20T23:01:27.738Z,9.53
2022-12-20T23:03:54.966Z,8.27
2022-12-20T23:06:22.326Z,8.50
2022-12-20T23:08:50.587Z,6.97
2022-12-20T23:11:41.549Z,7.60
2022-12-20T23:14:31.941Z,7.80
2022-12-20T23:16:59.444Z,6.77
2022-12-20T23:19:26.943Z,7.30
2022-12-20T23:22:12.598Z,7.63
2022-12-20T23:24:39.490Z,7.87
2022-12-20T23:27:07.595Z,6.30
2022-12-20T23:29:34.580Z,6.50
2022-12-20T23:32:01.601Z,9.33
2022-12-20T23:34:28.668Z,8.50
2022-12-20T23:36:55.997Z,10.43
2022-12-20T23:39:24.077Z,8.43
2022-12-20T23:41:51.844Z,6.27
2022-12-20T23:44:19.496Z,6.17
2022-12-20T23:46:46.457Z,5.67
2022-12-20T23:49:14.623Z,4.83
2022-12-20T23:51:43.552Z,5.03
2022-12-20T23:54:11.414Z,6.40
2022-12-20T23:56:38.334Z,4.63
2022-12-20T23:59:05.289Z,4.60
